sensor_id;sensor_type;location;lat;lon;timestamp;P1;durP1;ratioP1;P2;durP2;ratioP2
22622;SDS011;11478;51.094;7.030;2023-04-25T00:02:09;10.55;;;6.10;;
22622;SDS011;11478;51.094;7.030;2023-04-25T00:04:35;14.73;;;6.93;;
22622;SDS011;11478;51.094;7.030;2023-04-25T00:07:10;24.77;;;7.30;;
22622;SDS011;11478;51.094;7.030;2023-04-25T00:09:36;13.48;;;6.30;;
22622;SDS011;11478;51.094;7.030;2023-04-25T00:12:02;8.15;;;5.88;;
22622;SDS011;11478;51.094;7.030;2023-04-25T00:14:29;10.35;;;5.90;;
22622;SDS011;11478;51.094;7.030;2023-04-25T00:17:01;11.25;;;6.00;;
22622;SDS011;11478;51.094;7.030;2023-04-25T00:19:27;11.63;;;6.30;;
22622;SDS011;11478;51.094;7.030;2023-04-25T00:21:54;12.57;;;6.25;;
22622;SDS011;11478;51.094;7.030;2023-04-25T00:24:20;14.75;;;7.28;;
22622;SDS011;11478;51.094;7.030;2023-04-25T00:26:46;14.35;;;7.22;;
22622;SDS011;11478;51.094;7.030;2023-04-25T00:29:12;13.32;;;6.38;;
22622;SDS011;11478;51.094;7.030;2023-04-25T00:31:39;9.93;;;6.40;;
22622;SDS011;11478;51.094;7.030;2023-04-25T00:34:06;18.02;;;6.85;;
22622;SDS011;11478;51.094;7.030;2023-04-25T00:36:35;13.13;;;7.32;;
22622;SDS011;11478;51.094;7.030;2023-04-25T00:39:08;18.10;;;8.13;;
22622;SDS011;11478;51.094;7.030;2023-04-25T00:41:34;13.27;;;7.43;;
22622;SDS011;11478;51.094;7.030;2023-04-25T00:44:08;16.25;;;8.10;;
22622;SDS011;11478;51.094;7.030;2023-04-25T00:46:36;14.63;;;7.38;;
22622;SDS011;11478;51.094;7.030;2023-04-25T00:49:02;17.40;;;7.30;;
22622;SDS011;11478;51.094;7.030;2023-04-25T00:51:28;16.02;;;7.50;;
22622;SDS011;11478;51.094;7.030;2023-04-25T00:53:56;14.55;;;7.10;;
22622;SDS011;11478;51.094;7.030;2023-04-25T00:56:22;19.05;;;7.28;;
22622;SDS011;11478;51.094;7.030;2023-04-25T00:58:52;14.88;;;8.30;;
22622;SDS011;11478;51.094;7.030;2023-04-25T01:01:20;14.13;;;7.18;;
22622;SDS011;11478;51.094;7.030;2023-04-25T01:03:51;14.57;;;6.82;;
22622;SDS011;11478;51.094;7.030;2023-04-25T01:06:18;16.88;;;7.50;;
22622;SDS011;11478;51.094;7.030;2023-04-25T01:09:03;16.58;;;9.35;;
22622;SDS011;11478;51.094;7.030;2023-04-25T01:11:30;16.38;;;7.45;;
22622;SDS011;11478;51.094;7.030;2023-04-25T01:13:58;16.13;;;7.30;;
22622;SDS011;11478;51.094;7.030;2023-04-25T01:16:24;16.80;;;7.03;;
22622;SDS011;11478;51.094;7.030;2023-04-25T01:21:41;15.23;;;7.03;;
22622;SDS011;11478;51.094;7.030;2023-04-25T01:24:16;17.00;;;7.07;;
22622;SDS011;11478;51.094;7.030;2023-04-25T01:26:43;15.05;;;6.70;;
22622;SDS011;11478;51.094;7.030;2023-04-25T01:29:19;15.90;;;7.20;;
22622;SDS011;11478;51.094;7.030;2023-04-25T01:31:45;15.25;;;6.55;;
22622;SDS011;11478;51.094;7.030;2023-04-25T01:34:13;16.38;;;7.22;;
22622;SDS011;11478;51.094;7.030;2023-04-25T01:36:40;17.40;;;7.25;;
22622;SDS011;11478;51.094;7.030;2023-04-25T01:39:06;20.40;;;9.40;;
22622;SDS011;11478;51.094;7.030;2023-04-25T01:41:33;25.83;;;10.75;;
22622;SDS011;11478;51.094;7.030;2023-04-25T01:44:02;11.65;;;7.10;;
22622;SDS011;11478;51.094;7.030;2023-04-25T01:46:29;16.90;;;7.60;;
22622;SDS011;11478;51.094;7.030;2023-04-25T01:48:56;12.43;;;6.47;;
22622;SDS011;11478;51.094;7.030;2023-04-25T01:51:23;9.48;;;6.97;;
22622;SDS011;11478;51.094;7.030;2023-04-25T01:53:49;16.05;;;6.53;;
22622;SDS011;11478;51.094;7.030;2023-04-25T01:56:17;14.43;;;7.40;;
22622;SDS011;11478;51.094;7.030;2023-04-25T01:58:43;11.13;;;6.47;;
22622;SDS011;11478;51.094;7.030;2023-04-25T02:01:18;13.95;;;7.20;;
22622;SDS011;11478;51.094;7.030;2023-04-25T02:03:44;15.15;;;6.97;;
22622;SDS011;11478;51.094;7.030;2023-04-25T02:06:11;19.50;;;7.60;;
22622;SDS011;11478;51.094;7.030;2023-04-25T02:08:37;10.70;;;6.65;;
22622;SDS011;11478;51.094;7.030;2023-04-25T02:11:03;13.77;;;7.32;;
22622;SDS011;11478;51.094;7.030;2023-04-25T02:13:29;19.02;;;6.68;;
22622;SDS011;11478;51.094;7.030;2023-04-25T02:15:56;15.20;;;7.10;;
22622;SDS011;11478;51.094;7.030;2023-04-25T02:18:22;13.77;;;6.40;;
22622;SDS011;11478;51.094;7.030;2023-04-25T02:20:49;25.42;;;6.80;;
22622;SDS011;11478;51.094;7.030;2023-04-25T02:23:15;17.40;;;7.30;;
22622;SDS011;11478;51.094;7.030;2023-04-25T02:25:50;21.48;;;7.82;;
22622;SDS011;11478;51.094;7.030;2023-04-25T02:28:16;19.45;;;7.55;;
22622;SDS011;11478;51.094;7.030;2023-04-25T02:30:49;15.50;;;7.07;;
22622;SDS011;11478;51.094;7.030;2023-04-25T02:33:15;24.63;;;8.10;;
22622;SDS011;11478;51.094;7.030;2023-04-25T02:35:42;11.43;;;6.55;;
22622;SDS011;11478;51.094;7.030;2023-04-25T02:38:08;16.25;;;7.20;;
22622;SDS011;11478;51.094;7.030;2023-04-25T02:40:33;16.55;;;7.32;;
22622;SDS011;11478;51.094;7.030;2023-04-25T02:42:59;23.50;;;8.07;;
22622;SDS011;11478;51.094;7.030;2023-04-25T02:45:25;17.92;;;7.25;;
22622;SDS011;11478;51.094;7.030;2023-04-25T02:47:51;23.85;;;8.38;;
22622;SDS011;11478;51.094;7.030;2023-04-25T02:50:18;20.17;;;7.82;;
22622;SDS011;11478;51.094;7.030;2023-04-25T02:52:44;14.90;;;8.07;;
22622;SDS011;11478;51.094;7.030;2023-04-25T02:57:42;19.77;;;7.50;;
22622;SDS011;11478;51.094;7.030;2023-04-25T03:00:09;22.83;;;7.63;;
22622;SDS011;11478;51.094;7.030;2023-04-25T03:02:59;19.50;;;7.78;;
22622;SDS011;11478;51.094;7.030;2023-04-25T03:05:25;20.60;;;8.52;;
22622;SDS011;11478;51.094;7.030;2023-04-25T03:07:53;18.77;;;8.05;;
22622;SDS011;11478;51.094;7.030;2023-04-25T03:10:19;16.30;;;7.45;;
22622;SDS011;11478;51.094;7.030;2023-04-25T03:12:48;22.88;;;9.18;;
22622;SDS011;11478;51.094;7.030;2023-04-25T03:15:14;20.48;;;8.10;;
22622;SDS011;11478;51.094;7.030;2023-04-25T03:17:41;24.77;;;8.57;;
22622;SDS011;11478;51.094;7.030;2023-04-25T03:20:08;20.05;;;8.27;;
22622;SDS011;11478;51.094;7.030;2023-04-25T03:22:36;22.27;;;9.05;;
22622;SDS011;11478;51.094;7.030;2023-04-25T03:25:02;19.63;;;8.48;;
22622;SDS011;11478;51.094;7.030;2023-04-25T03:27:30;24.38;;;7.82;;
22622;SDS011;11478;51.094;7.030;2023-04-25T03:29:56;22.45;;;8.93;;
22622;SDS011;11478;51.094;7.030;2023-04-25T03:32:23;26.17;;;12.50;;
22622;SDS011;11478;51.094;7.030;2023-04-25T03:34:49;31.75;;;9.73;;
22622;SDS011;11478;51.094;7.030;2023-04-25T03:37:17;22.45;;;8.90;;
22622;SDS011;11478;51.094;7.030;2023-04-25T03:39:43;24.65;;;8.05;;
22622;SDS011;11478;51.094;7.030;2023-04-25T03:42:08;20.83;;;8.73;;
22622;SDS011;11478;51.094;7.030;2023-04-25T03:44:34;22.35;;;8.40;;
22622;SDS011;11478;51.094;7.030;2023-04-25T03:47:00;20.48;;;8.50;;
22622;SDS011;11478;51.094;7.030;2023-04-25T03:49:27;21.30;;;8.20;;
22622;SDS011;11478;51.094;7.030;2023-04-25T03:51:53;22.45;;;8.38;;
22622;SDS011;11478;51.094;7.030;2023-04-25T03:54:20;19.58;;;7.78;;
22622;SDS011;11478;51.094;7.030;2023-04-25T03:56:46;20.55;;;8.70;;
22622;SDS011;11478;51.094;7.030;2023-04-25T03:59:12;21.90;;;9.10;;
22622;SDS011;11478;51.094;7.030;2023-04-25T04:01:37;24.02;;;8.95;;
22622;SDS011;11478;51.094;7.030;2023-04-25T04:04:03;20.75;;;7.85;;
22622;SDS011;11478;51.094;7.030;2023-04-25T04:06:29;17.75;;;7.72;;
22622;SDS011;11478;51.094;7.030;2023-04-25T04:09:00;19.60;;;8.20;;
22622;SDS011;11478;51.094;7.030;2023-04-25T04:11:25;24.10;;;8.43;;
22622;SDS011;11478;51.094;7.030;2023-04-25T04:13:51;16.23;;;7.90;;
22622;SDS011;11478;51.094;7.030;2023-04-25T04:16:17;19.58;;;8.23;;
22622;SDS011;11478;51.094;7.030;2023-04-25T04:18:45;16.77;;;8.13;;
22622;SDS011;11478;51.094;7.030;2023-04-25T04:21:11;22.58;;;8.95;;
22622;SDS011;11478;51.094;7.030;2023-04-25T04:23:48;21.13;;;7.97;;
22622;SDS011;11478;51.094;7.030;2023-04-25T04:26:14;18.88;;;8.57;;
22622;SDS011;11478;51.094;7.030;2023-04-25T04:28:44;19.65;;;7.50;;
22622;SDS011;11478;51.094;7.030;2023-04-25T04:31:10;19.15;;;7.93;;
22622;SDS011;11478;51.094;7.030;2023-04-25T04:33:39;15.57;;;8.02;;
22622;SDS011;11478;51.094;7.030;2023-04-25T04:36:06;23.98;;;8.20;;
22622;SDS011;11478;51.094;7.030;2023-04-25T04:38:33;17.15;;;7.50;;
22622;SDS011;11478;51.094;7.030;2023-04-25T04:43:39;17.88;;;8.30;;
22622;SDS011;11478;51.094;7.030;2023-04-25T04:46:09;22.70;;;8.05;;
22622;SDS011;11478;51.094;7.030;2023-04-25T04:48:35;16.65;;;7.70;;
22622;SDS011;11478;51.094;7.030;2023-04-25T04:51:04;24.10;;;8.48;;
22622;SDS011;11478;51.094;7.030;2023-04-25T04:53:30;26.38;;;8.75;;
22622;SDS011;11478;51.094;7.030;2023-04-25T04:55:57;19.98;;;8.77;;
22622;SDS011;11478;51.094;7.030;2023-04-25T04:58:26;18.05;;;7.95;;
22622;SDS011;11478;51.094;7.030;2023-04-25T05:00:54;24.38;;;9.18;;
22622;SDS011;11478;51.094;7.030;2023-04-25T05:03:21;21.75;;;8.15;;
22622;SDS011;11478;51.094;7.030;2023-04-25T05:08:17;21.98;;;7.88;;
22622;SDS011;11478;51.094;7.030;2023-04-25T05:10:45;23.70;;;9.15;;
22622;SDS011;11478;51.094;7.030;2023-04-25T05:13:11;22.45;;;8.38;;
22622;SDS011;11478;51.094;7.030;2023-04-25T05:15:37;21.65;;;8.77;;
22622;SDS011;11478;51.094;7.030;2023-04-25T05:18:03;20.45;;;9.02;;
22622;SDS011;11478;51.094;7.030;2023-04-25T05:20:35;24.98;;;9.32;;
22622;SDS011;11478;51.094;7.030;2023-04-25T05:23:01;28.55;;;8.52;;
22622;SDS011;11478;51.094;7.030;2023-04-25T05:25:35;22.75;;;7.93;;
22622;SDS011;11478;51.094;7.030;2023-04-25T05:28:04;21.52;;;8.38;;
22622;SDS011;11478;51.094;7.030;2023-04-25T05:30:31;20.35;;;7.72;;
22622;SDS011;11478;51.094;7.030;2023-04-25T05:32:57;15.07;;;7.03;;
22622;SDS011;11478;51.094;7.030;2023-04-25T05:35:24;19.83;;;7.60;;
22622;SDS011;11478;51.094;7.030;2023-04-25T05:37:50;21.80;;;8.43;;
22622;SDS011;11478;51.094;7.030;2023-04-25T05:40:16;23.10;;;8.35;;
22622;SDS011;11478;51.094;7.030;2023-04-25T05:42:42;28.73;;;9.00;;
22622;SDS011;11478;51.094;7.030;2023-04-25T05:45:17;21.00;;;9.00;;
22622;SDS011;11478;51.094;7.030;2023-04-25T05:47:43;29.02;;;8.88;;
22622;SDS011;11478;51.094;7.030;2023-04-25T05:50:09;26.20;;;9.65;;
22622;SDS011;11478;51.094;7.030;2023-04-25T05:52:35;23.42;;;9.60;;
22622;SDS011;11478;51.094;7.030;2023-04-25T05:55:01;24.15;;;9.38;;
22622;SDS011;11478;51.094;7.030;2023-04-25T05:57:27;29.00;;;9.10;;
22622;SDS011;11478;51.094;7.030;2023-04-25T05:59:53;25.70;;;7.75;;
22622;SDS011;11478;51.094;7.030;2023-04-25T06:02:19;23.33;;;7.35;;
22622;SDS011;11478;51.094;7.030;2023-04-25T06:05:01;26.88;;;8.57;;
22622;SDS011;11478;51.094;7.030;2023-04-25T06:07:30;20.20;;;7.43;;
22622;SDS011;11478;51.094;7.030;2023-04-25T06:09:56;34.65;;;7.88;;
22622;SDS011;11478;51.094;7.030;2023-04-25T06:12:22;22.08;;;7.10;;
22622;SDS011;11478;51.094;7.030;2023-04-25T06:14:48;23.70;;;7.70;;
22622;SDS011;11478;51.094;7.030;2023-04-25T06:17:14;23.00;;;6.38;;
22622;SDS011;11478;51.094;7.030;2023-04-25T06:19:40;26.20;;;6.78;;
22622;SDS011;11478;51.094;7.030;2023-04-25T06:22:07;27.33;;;7.35;;
22622;SDS011;11478;51.094;7.030;2023-04-25T06:24:34;19.30;;;6.57;;
22622;SDS011;11478;51.094;7.030;2023-04-25T06:27:00;20.52;;;6.68;;
22622;SDS011;11478;51.094;7.030;2023-04-25T06:31:58;20.52;;;6.47;;
22622;SDS011;11478;51.094;7.030;2023-04-25T06:35:11;25.98;;;7.30;;
22622;SDS011;11478;51.094;7.030;2023-04-25T06:37:57;22.58;;;6.90;;
22622;SDS011;11478;51.094;7.030;2023-04-25T06:40:24;32.92;;;7.55;;
22622;SDS011;11478;51.094;7.030;2023-04-25T06:42:59;28.85;;;6.93;;
22622;SDS011;11478;51.094;7.030;2023-04-25T06:45:25;22.48;;;6.93;;
22622;SDS011;11478;51.094;7.030;2023-04-25T06:47:52;24.23;;;6.85;;
22622;SDS011;11478;51.094;7.030;2023-04-25T06:50:22;24.50;;;7.00;;
22622;SDS011;11478;51.094;7.030;2023-04-25T06:52:49;21.27;;;6.60;;
22622;SDS011;11478;51.094;7.030;2023-04-25T06:55:18;22.27;;;6.70;;
22622;SDS011;11478;51.094;7.030;2023-04-25T06:57:53;25.77;;;6.75;;
22622;SDS011;11478;51.094;7.030;2023-04-25T07:00:22;24.15;;;6.55;;
22622;SDS011;11478;51.094;7.030;2023-04-25T07:02:58;24.48;;;7.22;;
22622;SDS011;11478;51.094;7.030;2023-04-25T07:05:27;25.25;;;6.93;;
22622;SDS011;11478;51.094;7.030;2023-04-25T07:07:56;25.67;;;8.00;;
22622;SDS011;11478;51.094;7.030;2023-04-25T07:10:25;24.63;;;8.85;;
22622;SDS011;11478;51.094;7.030;2023-04-25T07:12:57;16.90;;;6.72;;
22622;SDS011;11478;51.094;7.030;2023-04-25T07:15:23;25.85;;;6.95;;
22622;SDS011;11478;51.094;7.030;2023-04-25T07:20:21;26.63;;;7.22;;
22622;SDS011;11478;51.094;7.030;2023-04-25T07:22:48;19.10;;;7.55;;
22622;SDS011;11478;51.094;7.030;2023-04-25T07:25:15;21.63;;;7.72;;
22622;SDS011;11478;51.094;7.030;2023-04-25T07:30:22;19.20;;;5.43;;
22622;SDS011;11478;51.094;7.030;2023-04-25T07:33:04;20.88;;;5.28;;
22622;SDS011;11478;51.094;7.030;2023-04-25T07:35:29;16.77;;;4.60;;
22622;SDS011;11478;51.094;7.030;2023-04-25T07:38:08;17.10;;;5.18;;
22622;SDS011;11478;51.094;7.030;2023-04-25T07:40:35;15.80;;;3.83;;
22622;SDS011;11478;51.094;7.030;2023-04-25T07:43:02;14.70;;;4.03;;
22622;SDS011;11478;51.094;7.030;2023-04-25T07:45:28;17.70;;;4.30;;
22622;SDS011;11478;51.094;7.030;2023-04-25T07:47:54;17.33;;;3.95;;
22622;SDS011;11478;51.094;7.030;2023-04-25T07:50:23;17.63;;;4.10;;
22622;SDS011;11478;51.094;7.030;2023-04-25T07:52:49;18.63;;;3.92;;
22622;SDS011;11478;51.094;7.030;2023-04-25T07:55:18;13.73;;;3.33;;
22622;SDS011;11478;51.094;7.030;2023-04-25T07:57:47;14.80;;;3.58;;
22622;SDS011;11478;51.094;7.030;2023-04-25T08:00:13;15.55;;;3.53;;
22622;SDS011;11478;51.094;7.030;2023-04-25T08:05:27;17.45;;;4.40;;
22622;SDS011;11478;51.094;7.030;2023-04-25T08:08:05;15.35;;;3.78;;
22622;SDS011;11478;51.094;7.030;2023-04-25T08:10:32;16.27;;;3.88;;
22622;SDS011;11478;51.094;7.030;2023-04-25T08:12:59;17.55;;;4.20;;
22622;SDS011;11478;51.094;7.030;2023-04-25T08:15:25;15.27;;;4.05;;
22622;SDS011;11478;51.094;7.030;2023-04-25T08:17:56;16.83;;;3.55;;
22622;SDS011;11478;51.094;7.030;2023-04-25T08:20:26;14.18;;;3.22;;
22622;SDS011;11478;51.094;7.030;2023-04-25T08:22:58;15.63;;;4.38;;
22622;SDS011;11478;51.094;7.030;2023-04-25T08:25:24;10.65;;;3.42;;
22622;SDS011;11478;51.094;7.030;2023-04-25T08:27:55;14.75;;;4.00;;
22622;SDS011;11478;51.094;7.030;2023-04-25T08:30:22;18.10;;;4.03;;
22622;SDS011;11478;51.094;7.030;2023-04-25T08:32:57;16.75;;;4.30;;
22622;SDS011;11478;51.094;7.030;2023-04-25T08:35:26;12.68;;;4.20;;
22622;SDS011;11478;51.094;7.030;2023-04-25T08:37:57;19.15;;;5.30;;
22622;SDS011;11478;51.094;7.030;2023-04-25T08:40:27;18.00;;;4.35;;
22622;SDS011;11478;51.094;7.030;2023-04-25T08:42:58;14.07;;;3.75;;
22622;SDS011;11478;51.094;7.030;2023-04-25T08:45:29;13.73;;;3.60;;
22622;SDS011;11478;51.094;7.030;2023-04-25T08:47:57;17.63;;;4.20;;
22622;SDS011;11478;51.094;7.030;2023-04-25T08:50:27;14.70;;;4.05;;
22622;SDS011;11478;51.094;7.030;2023-04-25T08:52:58;16.80;;;4.95;;
22622;SDS011;11478;51.094;7.030;2023-04-25T08:56:14;15.48;;;4.22;;
22622;SDS011;11478;51.094;7.030;2023-04-25T08:58:43;11.98;;;3.60;;
22622;SDS011;11478;51.094;7.030;2023-04-25T09:01:11;13.13;;;3.25;;
22622;SDS011;11478;51.094;7.030;2023-04-25T09:03:37;11.18;;;3.58;;
22622;SDS011;11478;51.094;7.030;2023-04-25T09:06:06;11.90;;;3.00;;
22622;SDS011;11478;51.094;7.030;2023-04-25T09:08:37;16.85;;;3.20;;
22622;SDS011;11478;51.094;7.030;2023-04-25T09:11:13;13.13;;;3.13;;
22622;SDS011;11478;51.094;7.030;2023-04-25T09:13:41;14.45;;;3.60;;
22622;SDS011;11478;51.094;7.030;2023-04-25T09:16:08;13.52;;;3.40;;
22622;SDS011;11478;51.094;7.030;2023-04-25T09:18:34;11.80;;;3.20;;
22622;SDS011;11478;51.094;7.030;2023-04-25T09:21:10;13.65;;;3.75;;
22622;SDS011;11478;51.094;7.030;2023-04-25T09:23:48;11.45;;;4.20;;
22622;SDS011;11478;51.094;7.030;2023-04-25T09:26:23;9.30;;;2.95;;
22622;SDS011;11478;51.094;7.030;2023-04-25T09:29:06;11.18;;;2.83;;
22622;SDS011;11478;51.094;7.030;2023-04-25T09:31:34;9.57;;;3.00;;
22622;SDS011;11478;51.094;7.030;2023-04-25T09:34:03;11.43;;;3.08;;
22622;SDS011;11478;51.094;7.030;2023-04-25T09:36:30;9.80;;;3.05;;
22622;SDS011;11478;51.094;7.030;2023-04-25T09:39:02;15.02;;;2.92;;
22622;SDS011;11478;51.094;7.030;2023-04-25T09:41:31;9.48;;;2.95;;
22622;SDS011;11478;51.094;7.030;2023-04-25T09:44:00;11.60;;;3.08;;
22622;SDS011;11478;51.094;7.030;2023-04-25T09:46:32;8.60;;;3.03;;
22622;SDS011;11478;51.094;7.030;2023-04-25T09:49:07;9.48;;;2.88;;
22622;SDS011;11478;51.094;7.030;2023-04-25T09:51:36;11.05;;;2.83;;
22622;SDS011;11478;51.094;7.030;2023-04-25T09:54:02;9.38;;;2.67;;
22622;SDS011;11478;51.094;7.030;2023-04-25T09:56:41;9.18;;;3.20;;
22622;SDS011;11478;51.094;7.030;2023-04-25T09:59:07;10.88;;;4.05;;
22622;SDS011;11478;51.094;7.030;2023-04-25T10:01:37;10.63;;;3.13;;
22622;SDS011;11478;51.094;7.030;2023-04-25T10:04:10;12.38;;;3.65;;
22622;SDS011;11478;51.094;7.030;2023-04-25T10:06:38;12.73;;;3.92;;
22622;SDS011;11478;51.094;7.030;2023-04-25T10:09:06;10.32;;;3.40;;
22622;SDS011;11478;51.094;7.030;2023-04-25T10:11:33;9.02;;;2.97;;
22622;SDS011;11478;51.094;7.030;2023-04-25T10:14:00;9.80;;;3.00;;
22622;SDS011;11478;51.094;7.030;2023-04-25T10:16:38;11.60;;;2.92;;
22622;SDS011;11478;51.094;7.030;2023-04-25T10:19:19;14.57;;;3.28;;
22622;SDS011;11478;51.094;7.030;2023-04-25T10:24:30;14.23;;;3.95;;
22622;SDS011;11478;51.094;7.030;2023-04-25T10:27:05;10.45;;;3.60;;
22622;SDS011;11478;51.094;7.030;2023-04-25T10:29:32;11.50;;;2.88;;
22622;SDS011;11478;51.094;7.030;2023-04-25T10:31:58;6.97;;;2.10;;
22622;SDS011;11478;51.094;7.030;2023-04-25T10:34:42;9.95;;;2.63;;
22622;SDS011;11478;51.094;7.030;2023-04-25T10:37:12;6.30;;;2.05;;
22622;SDS011;11478;51.094;7.030;2023-04-25T10:39:39;9.25;;;2.60;;
22622;SDS011;11478;51.094;7.030;2023-04-25T10:42:17;7.85;;;2.25;;
22622;SDS011;11478;51.094;7.030;2023-04-25T10:44:47;7.45;;;2.25;;
22622;SDS011;11478;51.094;7.030;2023-04-25T10:47:34;10.45;;;2.45;;
22622;SDS011;11478;51.094;7.030;2023-04-25T10:50:06;4.70;;;1.85;;
22622;SDS011;11478;51.094;7.030;2023-04-25T10:52:33;9.35;;;2.22;;
22622;SDS011;11478;51.094;7.030;2023-04-25T10:55:12;7.43;;;1.95;;
22622;SDS011;11478;51.094;7.030;2023-04-25T10:57:42;8.10;;;2.10;;
22622;SDS011;11478;51.094;7.030;2023-04-25T11:00:19;7.05;;;1.90;;
22622;SDS011;11478;51.094;7.030;2023-04-25T11:02:49;8.55;;;2.13;;
22622;SDS011;11478;51.094;7.030;2023-04-25T11:05:19;7.22;;;2.20;;
22622;SDS011;11478;51.094;7.030;2023-04-25T11:10:16;6.13;;;1.90;;
22622;SDS011;11478;51.094;7.030;2023-04-25T11:12:42;8.18;;;2.00;;
22622;SDS011;11478;51.094;7.030;2023-04-25T11:15:09;8.88;;;2.00;;
22622;SDS011;11478;51.094;7.030;2023-04-25T11:17:35;8.82;;;2.25;;
22622;SDS011;11478;51.094;7.030;2023-04-25T11:20:07;9.75;;;2.20;;
22622;SDS011;11478;51.094;7.030;2023-04-25T11:22:40;7.65;;;2.15;;
22622;SDS011;11478;51.094;7.030;2023-04-25T11:25:07;9.32;;;2.83;;
22622;SDS011;11478;51.094;7.030;2023-04-25T11:27:36;6.53;;;2.10;;
22622;SDS011;11478;51.094;7.030;2023-04-25T11:32:42;8.88;;;2.13;;
22622;SDS011;11478;51.094;7.030;2023-04-25T11:37:39;4.68;;;1.60;;
22622;SDS011;11478;51.094;7.030;2023-04-25T11:40:14;3.97;;;1.40;;
22622;SDS011;11478;51.094;7.030;2023-04-25T11:42:43;5.85;;;1.77;;
22622;SDS011;11478;51.094;7.030;2023-04-25T11:45:11;6.95;;;2.00;;
22622;SDS011;11478;51.094;7.030;2023-04-25T11:47:37;7.13;;;1.85;;
22622;SDS011;11478;51.094;7.030;2023-04-25T11:52:41;10.20;;;1.90;;
22622;SDS011;11478;51.094;7.030;2023-04-25T11:58:02;7.47;;;1.50;;
22622;SDS011;11478;51.094;7.030;2023-04-25T12:00:33;6.15;;;1.80;;
22622;SDS011;11478;51.094;7.030;2023-04-25T12:02:59;7.47;;;1.70;;
22622;SDS011;11478;51.094;7.030;2023-04-25T12:05:38;4.82;;;1.52;;
22622;SDS011;11478;51.094;7.030;2023-04-25T12:10:38;5.65;;;2.00;;
22622;SDS011;11478;51.094;7.030;2023-04-25T12:13:24;6.95;;;2.00;;
22622;SDS011;11478;51.094;7.030;2023-04-25T12:15:52;7.47;;;2.17;;
22622;SDS011;11478;51.094;7.030;2023-04-25T12:18:22;5.45;;;1.85;;
22622;SDS011;11478;51.094;7.030;2023-04-25T12:20:50;6.80;;;2.05;;
22622;SDS011;11478;51.094;7.030;2023-04-25T12:23:27;5.47;;;1.90;;
22622;SDS011;11478;51.094;7.030;2023-04-25T12:25:54;6.82;;;1.85;;
22622;SDS011;11478;51.094;7.030;2023-04-25T12:31:02;4.97;;;1.70;;
22622;SDS011;11478;51.094;7.030;2023-04-25T12:33:36;5.18;;;1.80;;
22622;SDS011;11478;51.094;7.030;2023-04-25T12:36:04;8.18;;;1.90;;
22622;SDS011;11478;51.094;7.030;2023-04-25T12:38:39;7.40;;;2.30;;
22622;SDS011;11478;51.094;7.030;2023-04-25T12:41:08;7.50;;;2.60;;
22622;SDS011;11478;51.094;7.030;2023-04-25T12:43:34;7.78;;;2.53;;
22622;SDS011;11478;51.094;7.030;2023-04-25T12:46:02;8.30;;;2.33;;
22622;SDS011;11478;51.094;7.030;2023-04-25T12:48:28;6.55;;;2.33;;
22622;SDS011;11478;51.094;7.030;2023-04-25T12:50:56;9.38;;;2.58;;
22622;SDS011;11478;51.094;7.030;2023-04-25T12:53:22;7.28;;;2.60;;
22622;SDS011;11478;51.094;7.030;2023-04-25T12:55:53;7.03;;;2.30;;
22622;SDS011;11478;51.094;7.030;2023-04-25T12:58:19;11.07;;;2.40;;
22622;SDS011;11478;51.094;7.030;2023-04-25T13:00:51;8.40;;;2.47;;
22622;SDS011;11478;51.094;7.030;2023-04-25T13:03:17;7.07;;;2.33;;
22622;SDS011;11478;51.094;7.030;2023-04-25T13:05:43;9.07;;;3.00;;
22622;SDS011;11478;51.094;7.030;2023-04-25T13:08:09;9.45;;;3.25;;
22622;SDS011;11478;51.094;7.030;2023-04-25T13:10:39;8.95;;;2.53;;
22622;SDS011;11478;51.094;7.030;2023-04-25T13:13:05;11.20;;;2.80;;
22622;SDS011;11478;51.094;7.030;2023-04-25T13:15:34;12.88;;;2.97;;
22622;SDS011;11478;51.094;7.030;2023-04-25T13:18:00;10.52;;;3.10;;
22622;SDS011;11478;51.094;7.030;2023-04-25T13:20:34;12.65;;;3.35;;
22622;SDS011;11478;51.094;7.030;2023-04-25T13:23:20;9.88;;;3.40;;
22622;SDS011;11478;51.094;7.030;2023-04-25T13:25:47;12.80;;;3.50;;
22622;SDS011;11478;51.094;7.030;2023-04-25T13:28:14;12.10;;;3.15;;
22622;SDS011;11478;51.094;7.030;2023-04-25T13:30:40;9.90;;;3.10;;
22622;SDS011;11478;51.094;7.030;2023-04-25T13:33:15;8.18;;;3.03;;
22622;SDS011;11478;51.094;7.030;2023-04-25T13:35:46;12.60;;;3.40;;
22622;SDS011;11478;51.094;7.030;2023-04-25T13:38:21;10.02;;;3.30;;
22622;SDS011;11478;51.094;7.030;2023-04-25T13:40:48;8.95;;;2.85;;
22622;SDS011;11478;51.094;7.030;2023-04-25T13:43:23;8.70;;;3.05;;
22622;SDS011;11478;51.094;7.030;2023-04-25T13:45:49;10.32;;;3.33;;
22622;SDS011;11478;51.094;7.030;2023-04-25T13:48:17;11.15;;;3.00;;
22622;SDS011;11478;51.094;7.030;2023-04-25T13:50:44;8.82;;;3.33;;
22622;SDS011;11478;51.094;7.030;2023-04-25T13:53:17;12.43;;;3.20;;
22622;SDS011;11478;51.094;7.030;2023-04-25T13:55:43;13.88;;;6.00;;
22622;SDS011;11478;51.094;7.030;2023-04-25T13:58:09;13.73;;;4.43;;
22622;SDS011;11478;51.094;7.030;2023-04-25T14:03:11;6.43;;;2.40;;
22622;SDS011;11478;51.094;7.030;2023-04-25T14:05:47;7.93;;;2.47;;
22622;SDS011;11478;51.094;7.030;2023-04-25T14:08:13;6.50;;;2.20;;
22622;SDS011;11478;51.094;7.030;2023-04-25T14:10:58;7.47;;;2.17;;
22622;SDS011;11478;51.094;7.030;2023-04-25T14:13:41;8.02;;;2.28;;
22622;SDS011;11478;51.094;7.030;2023-04-25T14:16:15;7.53;;;2.17;;
22622;SDS011;11478;51.094;7.030;2023-04-25T14:18:41;5.63;;;2.30;;
22622;SDS011;11478;51.094;7.030;2023-04-25T14:21:26;7.45;;;1.92;;
22622;SDS011;11478;51.094;7.030;2023-04-25T14:23:54;6.40;;;2.03;;
22622;SDS011;11478;51.094;7.030;2023-04-25T14:26:20;5.00;;;1.55;;
22622;SDS011;11478;51.094;7.030;2023-04-25T14:28:50;7.30;;;1.70;;
22622;SDS011;11478;51.094;7.030;2023-04-25T14:31:19;7.55;;;2.00;;
22622;SDS011;11478;51.094;7.030;2023-04-25T14:33:45;3.55;;;1.80;;
22622;SDS011;11478;51.094;7.030;2023-04-25T14:36:13;6.60;;;1.88;;
22622;SDS011;11478;51.094;7.030;2023-04-25T14:38:39;5.82;;;1.92;;
22622;SDS011;11478;51.094;7.030;2023-04-25T14:41:10;7.05;;;1.98;;
22622;SDS011;11478;51.094;7.030;2023-04-25T14:43:39;6.43;;;1.70;;
22622;SDS011;11478;51.094;7.030;2023-04-25T14:46:08;7.10;;;2.17;;
22622;SDS011;11478;51.094;7.030;2023-04-25T14:48:47;6.13;;;2.03;;
22622;SDS011;11478;51.094;7.030;2023-04-25T14:51:13;5.90;;;2.15;;
22622;SDS011;11478;51.094;7.030;2023-04-25T14:53:39;5.07;;;1.67;;
22622;SDS011;11478;51.094;7.030;2023-04-25T14:56:12;7.22;;;1.70;;
22622;SDS011;11478;51.094;7.030;2023-04-25T14:58:56;5.30;;;2.05;;
22622;SDS011;11478;51.094;7.030;2023-04-25T15:01:25;3.53;;;1.73;;
22622;SDS011;11478;51.094;7.030;2023-04-25T15:03:51;7.68;;;1.98;;
22622;SDS011;11478;51.094;7.030;2023-04-25T15:06:19;8.75;;;2.08;;
22622;SDS011;11478;51.094;7.030;2023-04-25T15:08:44;5.47;;;2.28;;
22622;SDS011;11478;51.094;7.030;2023-04-25T15:13:39;7.40;;;2.55;;
22622;SDS011;11478;51.094;7.030;2023-04-25T15:16:07;6.72;;;2.10;;
22622;SDS011;11478;51.094;7.030;2023-04-25T15:18:33;5.38;;;1.90;;
22622;SDS011;11478;51.094;7.030;2023-04-25T15:20:59;7.30;;;2.88;;
22622;SDS011;11478;51.094;7.030;2023-04-25T15:23:25;8.88;;;2.33;;
22622;SDS011;11478;51.094;7.030;2023-04-25T15:25:51;7.78;;;3.67;;
22622;SDS011;11478;51.094;7.030;2023-04-25T15:28:20;11.93;;;3.33;;
22622;SDS011;11478;51.094;7.030;2023-04-25T15:30:46;14.32;;;4.40;;
22622;SDS011;11478;51.094;7.030;2023-04-25T15:33:15;9.15;;;3.65;;
22622;SDS011;11478;51.094;7.030;2023-04-25T15:35:41;9.55;;;2.75;;
22622;SDS011;11478;51.094;7.030;2023-04-25T15:38:10;7.88;;;2.33;;